createdAt,value
2023-04-11T00:00:00.763Z,69
2023-04-11T00:10:00.613Z,99
2023-04-11T00:20:00.760Z,99
2023-04-11T00:30:00.491Z,92
2023-04-11T00:40:00.436Z,46
2023-04-11T00:50:00.329Z,36
2023-04-11T01:00:00.415Z,25
2023-04-11T01:10:00.169Z,25
2023-04-11T01:20:00.245Z,18
2023-04-11T01:30:00.130Z,13
2023-04-11T01:40:00.095Z,14
2023-04-11T01:50:00.038Z,13
2023-04-11T01:59:59.976Z,14
2023-04-11T02:09:59.854Z,22
2023-04-11T02:19:59.930Z,25
2023-04-11T02:29:59.696Z,32
2023-04-11T02:39:59.763Z,31
2023-04-11T02:49:59.474Z,38
2023-04-11T02:59:59.484Z,36
2023-04-11T03:09:59.411Z,39
2023-04-11T03:19:59.349Z,44
2023-04-11T03:29:59.302Z,44
2023-04-11T03:39:59.178Z,49
2023-04-11T03:49:59.017Z,55
2023-04-11T03:59:59.097Z,62
2023-04-11T04:09:59.024Z,63
2023-04-11T04:19:58.894Z,66
2023-04-11T04:30:04.333Z,78
2023-04-11T04:39:58.820Z,76
2023-04-11T04:49:58.779Z,72
2023-04-11T04:59:58.581Z,78
2023-04-11T05:09:58.774Z,77
2023-04-11T05:19:58.385Z,75
2023-04-11T05:29:58.299Z,74
2023-04-11T05:39:58.238Z,81
2023-04-11T05:49:58.380Z,83
2023-04-11T05:59:58.203Z,81
2023-04-11T06:09:58.012Z,87
2023-04-11T06:19:58.111Z,88
2023-04-11T06:29:57.914Z,97
2023-04-11T06:39:57.902Z,99
2023-04-11T06:49:57.741Z,99
2023-04-11T06:59:57.812Z,99
2023-04-11T07:09:57.705Z,99
2023-04-11T07:19:57.595Z,99
2023-04-11T07:29:57.676Z,99
2023-04-11T07:39:57.464Z,99
2023-04-11T07:49:57.408Z,99
2023-04-11T07:59:57.348Z,99
2023-04-11T08:09:57.161Z,99
2023-04-11T08:19:57.194Z,99
2023-04-11T08:29:57.138Z,99
2023-04-11T08:39:56.979Z,99
2023-04-11T08:49:57.185Z,99
2023-04-11T08:59:56.998Z,99
2023-04-11T09:09:56.924Z,99
2023-04-11T09:19:56.713Z,99
2023-04-11T09:29:56.972Z,99
2023-04-11T09:39:56.702Z,99
2023-04-11T09:49:56.644Z,99
2023-04-11T09:59:56.536Z,99
2023-04-11T10:09:56.397Z,99
2023-04-11T10:19:56.728Z,99
2023-04-11T10:29:56.242Z,99
2023-04-11T10:39:56.190Z,99
2023-04-11T10:49:56.049Z,99
2023-04-11T10:59:56.094Z,99
2023-04-11T11:09:56.081Z,99
2023-04-11T11:19:56.246Z,99
2023-04-11T11:29:55.885Z,1
2023-04-11T11:39:55.759Z,1
2023-04-11T11:49:55.757Z,1
2023-04-11T11:59:55.619Z,1
2023-04-11T12:09:55.566Z,1
2023-04-11T12:19:55.536Z,1
2023-04-11T12:29:55.322Z,1
2023-04-11T12:39:55.257Z,1
2023-04-11T12:49:55.272Z,1
2023-04-11T12:59:55.165Z,1
2023-04-11T13:09:55.059Z,1
2023-04-11T13:19:55.076Z,1
2023-04-11T13:29:55.102Z,1
2023-04-11T13:39:54.955Z,1
2023-04-11T13:49:54.970Z,1
2023-04-11T13:59:54.756Z,1
2023-04-11T14:09:54.695Z,1
2023-04-11T14:19:54.725Z,1
2023-04-11T14:29:54.511Z,1
2023-04-11T14:39:54.445Z,1
2023-04-11T14:49:54.369Z,1
2023-04-11T14:59:54.262Z,1
2023-04-11T15:09:54.305Z,1
2023-04-11T15:19:54.299Z,1
2023-04-11T15:29:54.050Z,1
2023-04-11T15:39:53.983Z,1
2023-04-11T15:49:53.923Z,1
2023-04-11T15:59:53.876Z,1
2023-04-11T16:09:53.889Z,1
2023-04-11T16:19:53.852Z,1
2023-04-11T16:29:53.750Z,1
2023-04-11T16:39:53.641Z,1
2023-04-11T16:49:53.673Z,1
2023-04-11T16:59:53.502Z,1
2023-04-11T17:09:53.387Z,1
2023-04-11T17:19:53.358Z,1
2023-04-11T17:29:53.215Z,1
2023-04-11T17:39:53.316Z,1
2023-04-11T17:49:53.129Z,1
2023-04-11T17:59:53.196Z,1
2023-04-11T18:09:53.050Z,1
2023-04-11T18:19:52.889Z,1
2023-04-11T18:29:52.814Z,1
2023-04-11T18:39:52.853Z,1
2023-04-11T18:49:52.813Z,1
2023-04-11T18:59:55.222Z,1
2023-04-11T19:09:52.730Z,1
2023-04-11T19:19:52.444Z,1
2023-04-11T19:29:52.509Z,1
2023-04-11T19:39:52.374Z,1
2023-04-11T19:49:52.247Z,1
2023-04-11T19:59:52.234Z,1
2023-04-11T20:09:52.192Z,1
2023-04-11T20:19:52.204Z,1
2023-04-11T20:29:51.966Z,1
2023-04-11T20:39:51.947Z,1
2023-04-11T20:49:52.010Z,1
2023-04-11T20:59:51.892Z,1
2023-04-11T21:09:51.693Z,1
2023-04-11T21:19:51.664Z,1
2023-04-11T21:29:51.704Z,1
2023-04-11T21:39:51.498Z,1
2023-04-11T21:49:51.476Z,99
2023-04-11T21:59:51.398Z,99
2023-04-11T22:09:51.508Z,99
2023-04-11T22:19:51.239Z,99
2023-04-11T22:29:51.112Z,99
2023-04-11T22:39:51.375Z,97
2023-04-11T22:49:51.190Z,83
2023-04-11T22:59:51.013Z,71
2023-04-11T23:09:50.881Z,63
2023-04-11T23:19:51.185Z,60
2023-04-11T23:29:50.789Z,54
2023-04-11T23:39:50.689Z,42
2023-04-11T23:49:50.668Z,47
2023-04-11T23:59:50.560Z,48
